createdAt,value
2023-01-07T00:01:40.170Z,95520.28
2023-01-07T00:04:08.791Z,95513.41
2023-01-07T00:06:37.831Z,95516.09
2023-01-07T00:09:06.768Z,95516.78
2023-01-07T00:11:36.091Z,95517.84
2023-01-07T00:14:05.212Z,95514.81
2023-01-07T00:16:33.476Z,95517.72
2023-01-07T00:19:01.850Z,95520.28
2023-01-07T00:21:29.380Z,95518.53
2023-01-07T00:23:58.545Z,95511.44
2023-01-07T00:26:27.118Z,95517.47
2023-01-07T00:28:54.448Z,95506.75
2023-01-07T00:31:27.100Z,95501.50
2023-01-07T00:33:54.231Z,95503.63
2023-01-07T00:36:27.058Z,95501.31
2023-01-07T00:39:07.628Z,95496.63
2023-01-07T00:41:34.968Z,95493.56
2023-01-07T00:44:02.155Z,95496.03
2023-01-07T00:46:29.734Z,95489.63
2023-01-07T00:48:56.904Z,95491.47
2023-01-07T00:51:23.944Z,95495.66
2023-01-07T00:53:50.589Z,95494.13
2023-01-07T00:56:20.547Z,95495.06
2023-01-07T00:58:47.187Z,95493.31
2023-01-07T01:01:14.898Z,95494.13
2023-01-07T01:03:41.869Z,95496.69
2023-01-07T01:06:14.353Z,95486.34
2023-01-07T01:08:45.957Z,95485.28
2023-01-07T01:11:14.305Z,95486.09
2023-01-07T01:13:42.280Z,95483.78
2023-01-07T01:16:11.650Z,95492.25
2023-01-07T01:18:38.989Z,95490.03
2023-01-07T01:21:09.410Z,95488.38
2023-01-07T01:23:36.003Z,95493.50
2023-01-07T01:26:20.970Z,95491.16
2023-01-07T01:28:47.655Z,95492.78
2023-01-07T01:31:19.206Z,95492.00
2023-01-07T01:33:49.265Z,95493.03
2023-01-07T01:36:16.964Z,95497.91
2023-01-07T01:38:43.637Z,95505.00
2023-01-07T01:41:13.945Z,95493.56
2023-01-07T01:43:43.060Z,95486.47
2023-01-07T01:46:38.175Z,95480.78
2023-01-07T01:49:20.997Z,95475.66
2023-01-07T01:51:52.657Z,95470.41
2023-01-07T01:54:20.920Z,95470.09
2023-01-07T01:56:54.313Z,95471.50
2023-01-07T01:59:25.919Z,95468.81
2023-01-07T02:01:54.824Z,95471.59
2023-01-07T02:04:24.583Z,95468.22
2023-01-07T02:06:57.323Z,95465.06
2023-01-07T02:09:26.412Z,95461.81
2023-01-07T02:12:22.512Z,95462.59
2023-01-07T02:14:59.359Z,95461.09
2023-01-07T02:18:01.201Z,95461.31
2023-01-07T02:21:04.345Z,95462.84
2023-01-07T02:23:51.919Z,95454.78
2023-01-07T02:26:57.924Z,95450.78
2023-01-07T02:29:30.646Z,95451.75
2023-01-07T02:32:12.353Z,95448.94
2023-01-07T02:35:00.458Z,95447.00
2023-01-07T02:37:29.761Z,95444.09
2023-01-07T02:40:20.718Z,95437.56
2023-01-07T02:42:55.734Z,95437.78
2023-01-07T02:45:35.010Z,95438.69
2023-01-07T02:48:05.386Z,95435.44
2023-01-07T02:50:32.180Z,95433.56
2023-01-07T02:52:58.816Z,95431.00
2023-01-07T02:55:40.615Z,95425.56
2023-01-07T02:58:23.765Z,95428.84
2023-01-07T03:01:24.486Z,95429.31
2023-01-07T03:04:30.077Z,95427.75
2023-01-07T03:07:55.079Z,95422.50
2023-01-07T03:10:33.825Z,95424.59
2023-01-07T03:13:04.430Z,95424.94
2023-01-07T03:16:08.351Z,95410.28
2023-01-07T03:18:42.807Z,95414.94
2023-01-07T03:21:15.651Z,95414.16
2023-01-07T03:23:49.550Z,95411.44
2023-01-07T03:26:20.398Z,95409.09
2023-01-07T03:28:49.150Z,95413.63
2023-01-07T03:31:16.435Z,95405.22
2023-01-07T03:33:54.242Z,95407.22
2023-01-07T03:36:25.214Z,95403.75
2023-01-07T03:38:56.484Z,95401.31
2023-01-07T03:41:42.478Z,95397.81
2023-01-07T03:44:09.481Z,95387.31
2023-01-07T03:46:37.514Z,95377.19
2023-01-07T03:49:04.671Z,95373.59
2023-01-07T03:51:31.793Z,95371.63
2023-01-07T03:53:58.881Z,95371.72
2023-01-07T03:56:26.273Z,95373.59
2023-01-07T03:58:52.902Z,95369.50
2023-01-07T04:01:19.567Z,95363.47
2023-01-07T04:03:46.282Z,95359.81
2023-01-07T04:06:12.979Z,95354.69
2023-01-07T04:08:39.782Z,95350.84
2023-01-07T04:11:06.784Z,95349.31
2023-01-07T04:13:33.783Z,95340.13
2023-01-07T04:16:00.368Z,95343.59
2023-01-07T04:18:27.612Z,95342.19
2023-01-07T04:20:54.739Z,95339.88
2023-01-07T04:23:21.406Z,95332.78
2023-01-07T04:25:49.985Z,95327.91
2023-01-07T04:28:20.530Z,95336.91
2023-01-07T04:30:47.350Z,95320.28
2023-01-07T04:33:14.321Z,95325.81
2023-01-07T04:35:40.918Z,95327.78
2023-01-07T04:38:08.101Z,95320.34
2023-01-07T04:40:34.777Z,95317.28
2023-01-07T04:43:02.573Z,95318.47
2023-01-07T04:45:29.986Z,95308.53
2023-01-07T04:47:58.363Z,95302.34
2023-01-07T04:50:25.040Z,95293.00
2023-01-07T04:52:52.181Z,95297.13
2023-01-07T04:55:18.971Z,95294.69
2023-01-07T04:57:46.809Z,95298.00
2023-01-07T05:00:14.966Z,95285.88
2023-01-07T05:02:43.949Z,95288.38
2023-01-07T05:05:11.766Z,95281.53
2023-01-07T05:07:39.539Z,95283.06
2023-01-07T05:10:07.800Z,95283.81
2023-01-07T05:12:36.013Z,95280.97
2023-01-07T05:15:05.504Z,95282.41
2023-01-07T05:17:33.857Z,95272.91
2023-01-07T05:20:01.808Z,95266.88
2023-01-07T05:22:28.728Z,95259.34
2023-01-07T05:24:55.508Z,95265.03
2023-01-07T05:27:23.642Z,95261.53
2023-01-07T05:29:50.581Z,95256.75
2023-01-07T05:32:17.571Z,95262.34
2023-01-07T05:34:44.298Z,95244.91
2023-01-07T05:37:10.870Z,95253.75
2023-01-07T05:39:40.149Z,95256.69
2023-01-07T05:42:07.826Z,95246.78
2023-01-07T05:44:34.552Z,95243.84
2023-01-07T05:47:01.120Z,95243.41
2023-01-07T05:49:27.694Z,95235.34
2023-01-07T05:51:54.276Z,95236.72
2023-01-07T05:54:20.873Z,95233.56
2023-01-07T05:56:47.463Z,95231.22
2023-01-07T05:59:14.275Z,95234.75
2023-01-07T06:01:40.883Z,95234.66
2023-01-07T06:04:09.769Z,95227.75
2023-01-07T06:06:36.395Z,95222.41
2023-01-07T06:09:03.238Z,95226.47
2023-01-07T06:11:29.832Z,95226.28
2023-01-07T06:13:56.389Z,95227.50
2023-01-07T06:16:23.021Z,95228.06
2023-01-07T06:18:49.589Z,95225.00
2023-01-07T06:21:16.811Z,95228.91
2023-01-07T06:23:43.622Z,95231.75
2023-01-07T06:26:10.292Z,95231.81
2023-01-07T06:28:36.872Z,95225.22
2023-01-07T06:31:03.547Z,95217.66
2023-01-07T06:33:32.059Z,95214.31
2023-01-07T06:35:59.912Z,95211.47
2023-01-07T06:38:26.474Z,95214.00
2023-01-07T06:40:53.021Z,95208.66
2023-01-07T06:43:19.607Z,95205.78
2023-01-07T06:45:46.461Z,95200.22
2023-01-07T06:48:13.010Z,95206.50
2023-01-07T06:50:39.626Z,95203.34
2023-01-07T06:53:06.183Z,95199.44
2023-01-07T06:55:32.827Z,95196.44
2023-01-07T06:57:59.381Z,95197.50
2023-01-07T07:00:25.967Z,95196.88
2023-01-07T07:02:52.636Z,95196.06
2023-01-07T07:05:19.268Z,95196.06
2023-01-07T07:07:45.935Z,95196.97
2023-01-07T07:10:12.710Z,95197.50
2023-01-07T07:12:39.658Z,95197.63
2023-01-07T07:15:08.168Z,95194.44
2023-01-07T07:17:35.236Z,95193.81
2023-01-07T07:20:07.357Z,95188.97
2023-01-07T07:22:34.124Z,95190.16
2023-01-07T07:25:00.720Z,95183.97
2023-01-07T07:27:27.358Z,95184.06
2023-01-07T07:29:54.935Z,95177.63
2023-01-07T07:32:21.546Z,95171.81
2023-01-07T07:34:48.100Z,95170.19
2023-01-07T07:37:14.725Z,95172.63
2023-01-07T07:39:41.299Z,95171.91
2023-01-07T07:42:07.860Z,95171.84
2023-01-07T07:44:36.168Z,95173.00
2023-01-07T07:47:03.232Z,95169.09
2023-01-07T07:49:29.949Z,95170.53
2023-01-07T07:51:56.519Z,95178.25
2023-01-07T07:54:23.959Z,95175.19
2023-01-07T07:56:51.072Z,95167.38
2023-01-07T07:59:17.641Z,95169.56
2023-01-07T08:01:44.390Z,95167.47
2023-01-07T08:04:11.840Z,95159.41
2023-01-07T08:06:38.423Z,95156.56
2023-01-07T08:09:05.195Z,95156.38
2023-01-07T08:11:31.785Z,95155.88
2023-01-07T08:13:58.353Z,95157.56
2023-01-07T08:16:25.044Z,95155.84
2023-01-07T08:18:51.683Z,95151.91
2023-01-07T08:21:18.274Z,95153.38
2023-01-07T08:23:44.929Z,95151.53
2023-01-07T08:26:11.563Z,95153.41
2023-01-07T08:28:38.862Z,95155.56
2023-01-07T08:31:07.625Z,95146.91
2023-01-07T08:33:37.716Z,95151.59
2023-01-07T08:36:18.028Z,95140.16
2023-01-07T08:38:52.779Z,95139.19
2023-01-07T08:41:20.755Z,95137.34
2023-01-07T08:43:47.332Z,95125.88
2023-01-07T08:46:13.971Z,95121.97
2023-01-07T08:48:40.609Z,95116.81
2023-01-07T08:51:07.544Z,95120.16
2023-01-07T08:53:34.339Z,95113.78
2023-01-07T08:56:01.070Z,95111.91
2023-01-07T08:58:27.645Z,95105.97
2023-01-07T09:00:54.332Z,95110.69
2023-01-07T09:03:20.997Z,95100.78
2023-01-07T09:05:47.587Z,95098.34
2023-01-07T09:08:14.249Z,95093.34
2023-01-07T09:10:40.858Z,95098.06
2023-01-07T09:13:07.922Z,95087.41
2023-01-07T09:15:34.596Z,95084.44
2023-01-07T09:18:03.594Z,95076.50
2023-01-07T09:20:30.780Z,95077.78
2023-01-07T09:22:57.820Z,95076.94
2023-01-07T09:25:24.802Z,95082.94
2023-01-07T09:27:51.401Z,95082.91
2023-01-07T09:30:18.197Z,95085.56
2023-01-07T09:32:45.415Z,95086.16
2023-01-07T09:35:12.671Z,95086.19
2023-01-07T09:37:39.386Z,95079.63
2023-01-07T09:40:06.914Z,95086.56
2023-01-07T09:42:54.716Z,95080.44
2023-01-07T09:45:30.740Z,95078.13
2023-01-07T09:47:59.703Z,95066.75
2023-01-07T09:50:48.126Z,95069.34
2023-01-07T09:53:42.310Z,95077.25
2023-01-07T09:56:23.040Z,95058.16
2023-01-07T09:58:49.940Z,95055.22
2023-01-07T10:01:34.845Z,95056.03
2023-01-07T10:04:01.508Z,95057.84
2023-01-07T10:06:46.928Z,95054.31
2023-01-07T10:09:20.301Z,95050.38
2023-01-07T10:12:01.892Z,95042.66
2023-01-07T10:14:43.534Z,95040.91
2023-01-07T10:17:19.552Z,95029.31
2023-01-07T10:20:12.116Z,95036.66
2023-01-07T10:22:57.941Z,95032.34
2023-01-07T10:25:43.994Z,95022.56
2023-01-07T10:28:19.416Z,95022.63
2023-01-07T10:30:51.820Z,95013.78
2023-01-07T10:33:21.011Z,95010.84
2023-01-07T10:35:51.244Z,94995.75
2023-01-07T10:38:20.959Z,94994.31
2023-01-07T10:40:55.001Z,94982.28
2023-01-07T10:43:43.410Z,94981.09
2023-01-07T10:46:25.805Z,94979.69
2023-01-07T10:49:18.357Z,94983.44
2023-01-07T10:52:12.665Z,94977.72
2023-01-07T10:54:58.720Z,94972.69
2023-01-07T10:57:28.776Z,94970.72
2023-01-07T10:59:59.093Z,94958.38
2023-01-07T11:02:27.516Z,94956.06
2023-01-07T11:04:56.207Z,94954.22
2023-01-07T11:07:34.789Z,94948.03
2023-01-07T11:10:05.252Z,94942.94
2023-01-07T11:12:31.787Z,94939.56
2023-01-07T11:15:01.589Z,94942.34
2023-01-07T11:17:50.092Z,94936.81
2023-01-07T11:20:41.730Z,94931.53
2023-01-07T11:23:36.535Z,94930.31
2023-01-07T11:26:25.233Z,94917.28
2023-01-07T11:28:57.887Z,94919.03
2023-01-07T11:31:43.742Z,94919.03
2023-01-07T11:34:46.149Z,94911.91
2023-01-07T11:37:31.938Z,94908.94
2023-01-07T11:40:00.395Z,94907.97
2023-01-07T11:42:39.021Z,94907.66
2023-01-07T11:45:11.677Z,94902.81
2023-01-07T11:47:45.491Z,94897.22
2023-01-07T11:50:55.331Z,94894.34
2023-01-07T11:53:31.767Z,94887.78
2023-01-07T11:56:04.406Z,94894.19
2023-01-07T11:58:37.772Z,94883.56
2023-01-07T12:01:07.367Z,94879.72
2023-01-07T12:03:43.384Z,94883.34
2023-01-07T12:06:27.664Z,94888.28
2023-01-07T12:09:05.010Z,94885.25
2023-01-07T12:11:38.666Z,94880.16
2023-01-07T12:14:29.949Z,94869.72
2023-01-07T12:17:09.781Z,94879.22
2023-01-07T12:19:55.052Z,94871.03
2023-01-07T12:22:30.790Z,94868.16
2023-01-07T12:25:22.290Z,94869.66
2023-01-07T12:28:12.958Z,94863.41
2023-01-07T12:30:52.162Z,94862.25
2023-01-07T12:33:30.048Z,94865.09
2023-01-07T12:36:01.124Z,94865.84
2023-01-07T12:38:46.963Z,94862.31
2023-01-07T12:41:20.838Z,94854.13
2023-01-07T12:43:57.708Z,94863.69
2023-01-07T12:46:28.849Z,94864.53
2023-01-07T12:49:15.258Z,94860.97
2023-01-07T12:52:14.218Z,94855.63
2023-01-07T12:54:59.252Z,94854.00
2023-01-07T12:57:30.680Z,94849.22
2023-01-07T13:00:13.102Z,94853.97
2023-01-07T13:03:09.027Z,94843.34
2023-01-07T13:05:46.618Z,94840.28
2023-01-07T13:08:41.095Z,94843.22
2023-01-07T13:11:13.935Z,94839.50
2023-01-07T13:13:45.192Z,94839.97
2023-01-07T13:16:11.976Z,94846.09
2023-01-07T13:18:38.996Z,94845.88
2023-01-07T13:21:08.520Z,94842.56
2023-01-07T13:24:09.311Z,94839.72
2023-01-07T13:26:45.100Z,94840.50
2023-01-07T13:29:23.720Z,94846.53
2023-01-07T13:32:18.383Z,94843.03
2023-01-07T13:35:03.179Z,94844.16
2023-01-07T13:37:45.044Z,94843.47
2023-01-07T13:40:52.269Z,94837.88
2023-01-07T13:43:37.204Z,94832.28
2023-01-07T13:46:28.620Z,94832.88
2023-01-07T13:48:55.096Z,94831.06
2023-01-07T13:51:47.964Z,94823.66
2023-01-07T13:54:14.539Z,94825.53
2023-01-07T13:56:41.162Z,94828.16
2023-01-07T13:59:28.114Z,94818.53
2023-01-07T14:02:23.521Z,94817.25
2023-01-07T14:05:04.556Z,94817.59
2023-01-07T14:07:31.634Z,94814.56
2023-01-07T14:09:58.395Z,94817.31
2023-01-07T14:12:43.714Z,94817.78
2023-01-07T14:15:39.407Z,94823.13
2023-01-07T14:18:26.197Z,94824.56
2023-01-07T14:21:05.286Z,94824.25
2023-01-07T14:23:51.467Z,94826.78
2023-01-07T14:26:38.231Z,94830.66
2023-01-07T14:29:30.997Z,94828.56
2023-01-07T14:32:22.934Z,94824.63
2023-01-07T14:34:58.595Z,94830.44
2023-01-07T14:37:39.246Z,94825.06
2023-01-07T14:40:30.760Z,94821.28
2023-01-07T14:42:59.017Z,94829.94
2023-01-07T14:45:40.875Z,94826.84
2023-01-07T14:48:10.289Z,94830.44
2023-01-07T14:51:04.463Z,94823.22
2023-01-07T14:54:09.369Z,94825.66
2023-01-07T14:56:49.439Z,94822.44
2023-01-07T14:59:27.869Z,94822.66
2023-01-07T15:01:54.491Z,94823.09
2023-01-07T15:04:40.014Z,94837.31
2023-01-07T15:07:16.620Z,94833.13
2023-01-07T15:10:09.005Z,94828.72
2023-01-07T15:12:56.387Z,94838.78
2023-01-07T15:15:43.661Z,94840.13
2023-01-07T15:18:11.815Z,94830.78
2023-01-07T15:21:07.527Z,94829.72
2023-01-07T15:24:00.513Z,94830.25
2023-01-07T15:27:05.143Z,94831.31
2023-01-07T15:29:41.630Z,94841.88
2023-01-07T15:32:15.050Z,94828.53
2023-01-07T15:34:41.759Z,94830.84
2023-01-07T15:37:12.388Z,94826.00
2023-01-07T15:39:45.309Z,94836.81
2023-01-07T15:42:20.312Z,94823.97
2023-01-07T15:45:05.614Z,94815.06
2023-01-07T15:47:40.902Z,94820.31
2023-01-07T15:50:27.661Z,94822.28
2023-01-07T15:53:01.984Z,94823.47
2023-01-07T15:55:32.620Z,94817.84
2023-01-07T15:58:05.980Z,94824.78
2023-01-07T16:00:34.705Z,94827.25
2023-01-07T16:03:02.756Z,94829.38
2023-01-07T16:05:30.042Z,94823.56
2023-01-07T16:08:01.385Z,94822.75
2023-01-07T16:10:29.700Z,94819.50
2023-01-07T16:13:04.224Z,94823.16
2023-01-07T16:15:30.859Z,94817.41
2023-01-07T16:18:02.935Z,94815.66
2023-01-07T16:20:37.189Z,94815.75
2023-01-07T16:23:09.664Z,94817.69
2023-01-07T16:25:48.781Z,94822.88
2023-01-07T16:28:20.293Z,94818.41
2023-01-07T16:30:48.056Z,94814.25
2023-01-07T16:33:17.728Z,94812.38
2023-01-07T16:35:46.565Z,94809.59
2023-01-07T16:38:14.993Z,94811.38
2023-01-07T16:40:42.256Z,94817.84
2023-01-07T16:43:39.184Z,94823.13
2023-01-07T16:46:20.011Z,94834.28
2023-01-07T16:48:48.418Z,94833.13
2023-01-07T16:51:35.737Z,94829.97
2023-01-07T16:54:19.512Z,94831.16
2023-01-07T16:56:51.720Z,94830.91
2023-01-07T16:59:20.350Z,94833.91
2023-01-07T17:01:47.383Z,94835.78
2023-01-07T17:04:25.204Z,94848.53
2023-01-07T17:06:51.955Z,94840.09
2023-01-07T17:09:26.372Z,94834.72
2023-01-07T17:11:53.893Z,94827.88
2023-01-07T17:14:36.878Z,94824.53
2023-01-07T17:17:03.443Z,94824.66
2023-01-07T17:19:59.784Z,94825.56
2023-01-07T17:22:38.254Z,94835.22
2023-01-07T17:25:14.047Z,94828.78
2023-01-07T17:27:49.741Z,94825.75
2023-01-07T17:30:19.439Z,94827.22
2023-01-07T17:32:47.511Z,94829.13
2023-01-07T17:35:22.052Z,94831.34
2023-01-07T17:37:50.338Z,94840.69
2023-01-07T17:40:18.013Z,94835.59
2023-01-07T17:43:04.938Z,94844.13
2023-01-07T17:45:31.976Z,94841.69
2023-01-07T17:47:59.864Z,94835.13
2023-01-07T17:50:33.461Z,94834.34
2023-01-07T17:53:00.110Z,94837.19
2023-01-07T17:55:29.268Z,94833.59
2023-01-07T17:57:56.437Z,94831.16
2023-01-07T18:00:25.524Z,94834.94
2023-01-07T18:02:52.279Z,94841.00
2023-01-07T18:05:22.035Z,94844.50
2023-01-07T18:07:50.854Z,94843.19
2023-01-07T18:10:21.420Z,94839.22
2023-01-07T18:12:48.089Z,94835.13
2023-01-07T18:15:26.442Z,94845.34
2023-01-07T18:17:53.471Z,94846.38
2023-01-07T18:20:22.011Z,94847.38
2023-01-07T18:22:48.937Z,94845.56
2023-01-07T18:25:21.658Z,94845.88
2023-01-07T18:27:52.578Z,94846.56
2023-01-07T18:30:21.306Z,94852.19
2023-01-07T18:32:48.393Z,94839.25
2023-01-07T18:35:15.066Z,94841.16
2023-01-07T18:37:41.733Z,94844.69
2023-01-07T18:40:09.481Z,94855.38
2023-01-07T18:42:36.309Z,94854.66
2023-01-07T18:45:03.809Z,94839.88
2023-01-07T18:47:30.444Z,94836.75
2023-01-07T18:49:56.993Z,94849.78
2023-01-07T18:52:23.901Z,94841.00
2023-01-07T18:54:53.059Z,94838.28
2023-01-07T18:57:20.020Z,94838.88
2023-01-07T18:59:47.795Z,94836.22
2023-01-07T19:02:16.972Z,94833.56
2023-01-07T19:04:43.586Z,94833.56
2023-01-07T19:07:10.466Z,94836.94
2023-01-07T19:09:37.278Z,94841.94
2023-01-07T19:12:05.638Z,94839.41
2023-01-07T19:14:33.104Z,94841.91
2023-01-07T19:17:00.457Z,94841.19
2023-01-07T19:19:32.046Z,94836.66
2023-01-07T19:22:01.036Z,94836.53
2023-01-07T19:24:27.639Z,94834.50
2023-01-07T19:26:54.213Z,94837.16
2023-01-07T19:29:20.814Z,94828.59
2023-01-07T19:31:47.517Z,94832.78
2023-01-07T19:34:18.470Z,94838.38
2023-01-07T19:36:47.214Z,94830.75
2023-01-07T19:39:18.945Z,94826.66
2023-01-07T19:41:45.901Z,94832.69
2023-01-07T19:44:13.071Z,94836.00
2023-01-07T19:46:40.664Z,94835.75
2023-01-07T19:49:08.640Z,94829.63
2023-01-07T19:51:38.944Z,94832.66
2023-01-07T19:54:06.956Z,94827.25
2023-01-07T19:56:34.484Z,94813.94
2023-01-07T19:59:01.127Z,94813.22
2023-01-07T20:01:28.678Z,94813.94
2023-01-07T20:03:57.391Z,94806.31
2023-01-07T20:06:26.586Z,94810.91
2023-01-07T20:08:54.968Z,94810.19
2023-01-07T20:11:22.660Z,94811.19
2023-01-07T20:13:49.971Z,94807.72
2023-01-07T20:16:19.759Z,94807.59
2023-01-07T20:18:48.331Z,94795.94
2023-01-07T20:21:17.562Z,94800.72
2023-01-07T20:23:44.613Z,94804.53
2023-01-07T20:26:18.000Z,94796.34
2023-01-07T20:28:44.612Z,94796.88
2023-01-07T20:31:14.499Z,94801.94
2023-01-07T20:33:41.466Z,94805.88
2023-01-07T20:36:16.458Z,94796.91
2023-01-07T20:38:44.056Z,94798.00
2023-01-07T20:41:19.831Z,94787.56
2023-01-07T20:43:52.159Z,94789.16
2023-01-07T20:46:19.078Z,94779.25
2023-01-07T20:48:46.139Z,94773.88
2023-01-07T20:51:13.831Z,94778.25
2023-01-07T20:53:41.200Z,94773.56
2023-01-07T20:56:08.404Z,94774.66
2023-01-07T20:58:37.240Z,94780.44
2023-01-07T21:01:05.943Z,94774.16
2023-01-07T21:03:32.803Z,94763.72
2023-01-07T21:05:59.466Z,94764.97
2023-01-07T21:08:26.882Z,94768.41
2023-01-07T21:10:54.213Z,94762.63
2023-01-07T21:13:22.056Z,94755.78
2023-01-07T21:15:48.881Z,94764.75
2023-01-07T21:18:15.500Z,94755.50
2023-01-07T21:20:43.161Z,94749.13
2023-01-07T21:23:10.472Z,94737.72
2023-01-07T21:25:37.810Z,94743.72
2023-01-07T21:28:06.590Z,94736.72
2023-01-07T21:30:33.928Z,94739.06
2023-01-07T21:33:00.756Z,94729.84
2023-01-07T21:35:27.339Z,94723.81
2023-01-07T21:37:55.253Z,94719.75
2023-01-07T21:40:22.757Z,94724.03
2023-01-07T21:42:49.619Z,94733.16
2023-01-07T21:45:17.340Z,94730.22
2023-01-07T21:47:44.053Z,94727.25
2023-01-07T21:50:11.082Z,94728.78
2023-01-07T21:52:37.649Z,94727.63
2023-01-07T21:55:04.811Z,94731.81
2023-01-07T21:57:31.464Z,94729.78
2023-01-07T21:59:58.108Z,94724.88
2023-01-07T22:02:24.670Z,94723.91
2023-01-07T22:04:51.289Z,94722.53
2023-01-07T22:07:19.282Z,94721.16
2023-01-07T22:09:46.553Z,94719.91
2023-01-07T22:12:14.718Z,94721.34
2023-01-07T22:14:41.378Z,94729.91
2023-01-07T22:17:08.104Z,94730.00
2023-01-07T22:19:34.907Z,94715.25
2023-01-07T22:22:01.614Z,94720.13
2023-01-07T22:24:28.332Z,94717.03
2023-01-07T22:26:55.265Z,94725.19
2023-01-07T22:29:22.000Z,94725.72
2023-01-07T22:31:51.033Z,94729.06
2023-01-07T22:34:17.699Z,94725.59
2023-01-07T22:37:00.081Z,94726.31
2023-01-07T22:39:34.352Z,94724.47
2023-01-07T22:42:07.214Z,94738.44
2023-01-07T22:44:39.475Z,94735.91
2023-01-07T22:47:11.605Z,94730.22
2023-01-07T22:49:40.457Z,94729.41
2023-01-07T22:52:07.599Z,94738.38
2023-01-07T22:54:36.023Z,94728.59
2023-01-07T22:57:06.696Z,94720.38
2023-01-07T22:59:33.410Z,94717.91
2023-01-07T23:01:59.969Z,94720.28
2023-01-07T23:04:26.598Z,94714.66
2023-01-07T23:06:53.215Z,94712.84
2023-01-07T23:09:20.385Z,94709.41
2023-01-07T23:11:50.662Z,94698.19
2023-01-07T23:14:20.085Z,94695.28
2023-01-07T23:16:47.204Z,94692.91
2023-01-07T23:19:14.499Z,94680.34
2023-01-07T23:21:43.342Z,94674.44
2023-01-07T23:24:11.953Z,94671.91
2023-01-07T23:26:39.023Z,94666.94
2023-01-07T23:29:06.517Z,94666.25
2023-01-07T23:31:34.635Z,94660.31
2023-01-07T23:34:01.850Z,94655.06
2023-01-07T23:36:28.765Z,94667.22
2023-01-07T23:38:55.586Z,94662.50
2023-01-07T23:41:22.798Z,94655.09
2023-01-07T23:43:49.868Z,94656.06
2023-01-07T23:46:16.612Z,94649.13
2023-01-07T23:48:43.238Z,94644.13
2023-01-07T23:51:18.295Z,94640.88
2023-01-07T23:53:45.412Z,94637.00
2023-01-07T23:56:13.305Z,94636.16
2023-01-07T23:58:39.917Z,94642.34
